Portada
METAR-TAF:

METAR-TAF

Aeroports :

Bucarest, Romania

latitud: 44-33N, longitud: 026-06E, altitud: 95 m

Observació

L'informe es va fer fa 11 minuts, a les 15:00 UTC
Vent 7 kt del Nord-Oest
Temperatura 28°C
Humitat 51%
Pressió 1013 hPa
Visibilitat 10 km o més
Escasses núvols a una alçada de 5000 ft, Cumulonimbus.

METAR: LROP 171500Z 32007KT 9999 FEW050CB 28/17 Q1013 NOSIG

Hora: 18:11 (15:11 UTC)

Pronòstic

L'informe es va fer fa 4 hores i 11 minuts, a les 11:00 UTC
Pronòstic vàlid del 17 a les 12 UTC al 18 a les 12 UTC
Vent 10 kt del Est/Nord-Est
Visibilitat 10 km o més
sense núvols per sota de 1500 mi sense presència de cumulonimbus.
Temporalment
l' 17 a les 14 UTC al 17 a les 19 UTC
Núvols disperses a una alçada de 4000 ft, Cumulonimbus.
Probabilitat 30% :
Temporalment
l' 17 a les 14 UTC al 17 a les 18 UTC
Vent 20 kt amb direcció variable
tempesta, pluja

TAF: LROP 171100Z 1712/1812 06010KT CAVOK TEMPO 1714/1719 SCT040CB PROB30 TEMPO 1714/1718 VRB20KT -TSRA

Observacions i pronòstics meteorològics de més de 4000 aeroports (METAR i TAF).

Les estacions disponibles són els punts grocs i vermells al mapa.

Posi el ratolí al punt desitjat per veure el nom de l'estació.

Feu clic per veure les observacions i els pronòstics meteorològics.

Per canviar el mapa: feu clic els botons verds amb una creu de color negre per apropar; al botó verd amb un guió per allunyar la imatge; o en les fletxes verdes per a mapes adjacents.


METAR-TAF: